Hlavní strana
METAR-TAF:

METAR-TAF

Letiště :

Illinois Valley Regional Airport (Walter A. Duncan Field)

Peru / LaSalle, Illinois, Spojené státy americké

zeměpisná šířka: 41-21-07N, zeměpisná délka: 089-09-11W, výška: 199 m

Aktuální stav počasí

Zpráva byla vytvořena před 17 minutami, v 01:55 UTC
Severoseverovýchodní vítr 14 kt s nárazy do 24 kt
Teplota 0°C
Vlhkost vzduchu 93%
Tlak 1019 hPa
Viditelnost: 4.8 km
Polojasno ve výšce 1200 ft
Zataženo ve výšce 2700 ft
slabé sněžení

METAR: KVYS 260155Z AUTO 02014G24KT 3SM -SN SCT012 OVC027 00/M01 A3009 RMK AO2 T00021014

Čas: 20:12 (02:12 UTC)


TAF: chybějící

Stav a předpovědi počasí z více než 4 000 letišť (zprávy METAR a TAF).

Červené a žluté tečky na mapě představují dostupné meteorologické stanice.

Když kurzor umístíte na tečku, zobrazí se název stanice.

Pak kliknutím zobrazíte stav a předpověď počasí.

Chcete-li změnit mapu, kliknutím na zelené tlačítko se znaménkem +mapu přiblížíte, kliknutím na zelené tlačítko se znaménkem – mapu oddálíte a kliknutím na zelené šipky přejdete na sousední mapy.


METAR-TAF: